sensor_id;sensor_type;location;lat;lon;timestamp;temperature;humidity
23568;DHT22;11962;50.838;4.430;2024-02-21T00:00:21;11.50;99.90
23568;DHT22;11962;50.838;4.430;2024-02-21T00:02:47;11.50;99.90
23568;DHT22;11962;50.838;4.430;2024-02-21T00:05:12;11.50;99.90
23568;DHT22;11962;50.838;4.430;2024-02-21T00:07:38;11.40;99.90
23568;DHT22;11962;50.838;4.430;2024-02-21T00:10:04;11.50;99.90
23568;DHT22;11962;50.838;4.430;2024-02-21T00:12:30;11.50;99.90
23568;DHT22;11962;50.838;4.430;2024-02-21T00:14:56;11.50;99.90
23568;DHT22;11962;50.838;4.430;2024-02-21T00:17:22;11.50;99.90
23568;DHT22;11962;50.838;4.430;2024-02-21T00:19:48;11.60;99.90
23568;DHT22;11962;50.838;4.430;2024-02-21T00:22:13;11.60;99.90
23568;DHT22;11962;50.838;4.430;2024-02-21T00:24:39;11.60;99.90
23568;DHT22;11962;50.838;4.430;2024-02-21T00:27:05;11.60;99.90
23568;DHT22;11962;50.838;4.430;2024-02-21T00:29:30;11.50;99.90
23568;DHT22;11962;50.838;4.430;2024-02-21T00:31:56;11.50;99.90
23568;DHT22;11962;50.838;4.430;2024-02-21T00:34:22;11.60;99.90
23568;DHT22;11962;50.838;4.430;2024-02-21T00:36:47;11.50;99.90
23568;DHT22;11962;50.838;4.430;2024-02-21T00:39:13;11.50;99.90
23568;DHT22;11962;50.838;4.430;2024-02-21T00:41:39;11.50;99.90
23568;DHT22;11962;50.838;4.430;2024-02-21T00:44:04;11.60;99.90
23568;DHT22;11962;50.838;4.430;2024-02-21T00:46:31;11.60;99.90
23568;DHT22;11962;50.838;4.430;2024-02-21T00:48:57;11.60;99.90
23568;DHT22;11962;50.838;4.430;2024-02-21T00:51:23;11.60;99.90
23568;DHT22;11962;50.838;4.430;2024-02-21T00:53:48;11.60;99.90
23568;DHT22;11962;50.838;4.430;2024-02-21T00:56:22;11.60;99.90
23568;DHT22;11962;50.838;4.430;2024-02-21T00:58:48;11.60;99.90
23568;DHT22;11962;50.838;4.430;2024-02-21T01:01:23;11.60;99.90
23568;DHT22;11962;50.838;4.430;2024-02-21T01:03:50;11.60;99.90
23568;DHT22;11962;50.838;4.430;2024-02-21T01:06:19;11.50;99.90
23568;DHT22;11962;50.838;4.430;2024-02-21T01:08:49;11.50;99.90
23568;DHT22;11962;50.838;4.430;2024-02-21T01:11:15;11.50;99.90
23568;DHT22;11962;50.838;4.430;2024-02-21T01:13:41;11.50;99.90
23568;DHT22;11962;50.838;4.430;2024-02-21T01:16:07;11.50;99.90
23568;DHT22;11962;50.838;4.430;2024-02-21T01:18:39;11.50;99.90
23568;DHT22;11962;50.838;4.430;2024-02-21T01:21:06;11.50;99.90
23568;DHT22;11962;50.838;4.430;2024-02-21T01:23:36;11.50;99.90
23568;DHT22;11962;50.838;4.430;2024-02-21T01:26:03;11.50;99.90
23568;DHT22;11962;50.838;4.430;2024-02-21T01:28:29;11.40;99.90
23568;DHT22;11962;50.838;4.430;2024-02-21T01:30:56;11.50;99.90
23568;DHT22;11962;50.838;4.430;2024-02-21T01:33:22;11.40;99.90
23568;DHT22;11962;50.838;4.430;2024-02-21T01:35:47;11.30;99.90
23568;DHT22;11962;50.838;4.430;2024-02-21T01:38:14;11.20;99.90
23568;DHT22;11962;50.838;4.430;2024-02-21T01:40:40;11.20;99.90
23568;DHT22;11962;50.838;4.430;2024-02-21T01:43:19;11.20;99.90
23568;DHT22;11962;50.838;4.430;2024-02-21T01:45:50;11.20;99.90
23568;DHT22;11962;50.838;4.430;2024-02-21T01:48:17;11.20;99.90
23568;DHT22;11962;50.838;4.430;2024-02-21T01:50:45;11.10;99.90
23568;DHT22;11962;50.838;4.430;2024-02-21T01:53:12;11.10;99.90
23568;DHT22;11962;50.838;4.430;2024-02-21T01:55:47;11.10;99.90
23568;DHT22;11962;50.838;4.430;2024-02-21T01:58:14;11.10;99.90
23568;DHT22;11962;50.838;4.430;2024-02-21T02:00:44;11.10;99.90
23568;DHT22;11962;50.838;4.430;2024-02-21T02:03:11;11.20;99.90
23568;DHT22;11962;50.838;4.430;2024-02-21T02:05:47;11.20;99.90
23568;DHT22;11962;50.838;4.430;2024-02-21T02:08:18;11.10;99.90
23568;DHT22;11962;50.838;4.430;2024-02-21T02:10:44;11.20;99.90
23568;DHT22;11962;50.838;4.430;2024-02-21T02:13:11;11.10;99.90
23568;DHT22;11962;50.838;4.430;2024-02-21T02:15:41;11.10;99.90
23568;DHT22;11962;50.838;4.430;2024-02-21T02:18:07;11.10;99.90
23568;DHT22;11962;50.838;4.430;2024-02-21T02:20:33;11.10;99.90
23568;DHT22;11962;50.838;4.430;2024-02-21T02:22:59;11.10;99.90
23568;DHT22;11962;50.838;4.430;2024-02-21T02:25:26;11.10;99.90
23568;DHT22;11962;50.838;4.430;2024-02-21T02:27:52;11.10;99.90
23568;DHT22;11962;50.838;4.430;2024-02-21T02:30:18;11.10;99.90
23568;DHT22;11962;50.838;4.430;2024-02-21T02:32:46;11.10;99.90
23568;DHT22;11962;50.838;4.430;2024-02-21T02:35:12;11.20;99.90
23568;DHT22;11962;50.838;4.430;2024-02-21T02:37:38;11.20;99.90
23568;DHT22;11962;50.838;4.430;2024-02-21T02:40:06;11.20;99.90
23568;DHT22;11962;50.838;4.430;2024-02-21T02:42:31;11.20;99.90
23568;DHT22;11962;50.838;4.430;2024-02-21T02:44:57;11.20;99.90
23568;DHT22;11962;50.838;4.430;2024-02-21T02:47:23;11.20;99.90
23568;DHT22;11962;50.838;4.430;2024-02-21T02:49:49;11.30;99.90
23568;DHT22;11962;50.838;4.430;2024-02-21T02:52:17;11.30;99.90
23568;DHT22;11962;50.838;4.430;2024-02-21T02:54:43;11.30;99.90
23568;DHT22;11962;50.838;4.430;2024-02-21T02:57:09;11.20;99.90
23568;DHT22;11962;50.838;4.430;2024-02-21T02:59:35;11.20;99.90
23568;DHT22;11962;50.838;4.430;2024-02-21T03:02:01;11.30;99.90
23568;DHT22;11962;50.838;4.430;2024-02-21T03:04:27;11.30;99.90
23568;DHT22;11962;50.838;4.430;2024-02-21T03:06:53;11.40;99.90
23568;DHT22;11962;50.838;4.430;2024-02-21T03:09:18;11.40;99.90
23568;DHT22;11962;50.838;4.430;2024-02-21T03:11:44;11.40;99.90
23568;DHT22;11962;50.838;4.430;2024-02-21T03:14:10;11.30;99.90
23568;DHT22;11962;50.838;4.430;2024-02-21T03:16:36;11.20;99.90
23568;DHT22;11962;50.838;4.430;2024-02-21T03:19:02;11.30;99.90
23568;DHT22;11962;50.838;4.430;2024-02-21T03:21:28;11.40;99.90
23568;DHT22;11962;50.838;4.430;2024-02-21T03:23:56;11.40;99.90
23568;DHT22;11962;50.838;4.430;2024-02-21T03:26:22;11.40;99.90
23568;DHT22;11962;50.838;4.430;2024-02-21T03:28:48;11.40;99.90
23568;DHT22;11962;50.838;4.430;2024-02-21T03:31:14;11.40;99.90
23568;DHT22;11962;50.838;4.430;2024-02-21T03:33:42;11.40;99.90
23568;DHT22;11962;50.838;4.430;2024-02-21T03:36:13;11.40;99.90
23568;DHT22;11962;50.838;4.430;2024-02-21T03:38:39;11.50;99.90
23568;DHT22;11962;50.838;4.430;2024-02-21T03:41:05;11.40;99.90
23568;DHT22;11962;50.838;4.430;2024-02-21T03:43:31;11.40;99.90
23568;DHT22;11962;50.838;4.430;2024-02-21T03:45:57;11.40;99.90
23568;DHT22;11962;50.838;4.430;2024-02-21T03:48:22;11.50;99.90
23568;DHT22;11962;50.838;4.430;2024-02-21T03:50:48;11.40;99.90
23568;DHT22;11962;50.838;4.430;2024-02-21T03:53:14;11.40;99.90
23568;DHT22;11962;50.838;4.430;2024-02-21T03:55:39;11.50;99.90
23568;DHT22;11962;50.838;4.430;2024-02-21T03:58:05;11.50;99.90
23568;DHT22;11962;50.838;4.430;2024-02-21T04:00:30;11.40;99.90
23568;DHT22;11962;50.838;4.430;2024-02-21T04:02:56;11.40;99.90
23568;DHT22;11962;50.838;4.430;2024-02-21T04:05:22;11.40;99.90
23568;DHT22;11962;50.838;4.430;2024-02-21T04:07:47;11.40;99.90
23568;DHT22;11962;50.838;4.430;2024-02-21T04:10:13;11.30;99.90
23568;DHT22;11962;50.838;4.430;2024-02-21T04:12:39;11.30;99.90
23568;DHT22;11962;50.838;4.430;2024-02-21T04:15:05;11.30;99.90
23568;DHT22;11962;50.838;4.430;2024-02-21T04:17:31;11.30;99.90
23568;DHT22;11962;50.838;4.430;2024-02-21T04:20:04;11.30;99.90
23568;DHT22;11962;50.838;4.430;2024-02-21T04:22:31;11.30;99.90
23568;DHT22;11962;50.838;4.430;2024-02-21T04:25:00;11.30;99.90
23568;DHT22;11962;50.838;4.430;2024-02-21T04:27:26;11.30;99.90
23568;DHT22;11962;50.838;4.430;2024-02-21T04:29:52;11.40;99.90
23568;DHT22;11962;50.838;4.430;2024-02-21T04:32:18;11.30;99.90
23568;DHT22;11962;50.838;4.430;2024-02-21T04:34:44;11.30;99.90
23568;DHT22;11962;50.838;4.430;2024-02-21T04:37:10;11.30;99.90
23568;DHT22;11962;50.838;4.430;2024-02-21T04:39:35;11.30;99.90
23568;DHT22;11962;50.838;4.430;2024-02-21T04:42:01;11.30;99.90
23568;DHT22;11962;50.838;4.430;2024-02-21T04:44:27;11.20;99.90
23568;DHT22;11962;50.838;4.430;2024-02-21T04:46:53;11.20;99.90
23568;DHT22;11962;50.838;4.430;2024-02-21T04:49:18;11.20;99.90
23568;DHT22;11962;50.838;4.430;2024-02-21T04:51:44;11.30;99.90
23568;DHT22;11962;50.838;4.430;2024-02-21T04:54:10;11.40;99.90
23568;DHT22;11962;50.838;4.430;2024-02-21T04:56:35;11.30;99.90
23568;DHT22;11962;50.838;4.430;2024-02-21T04:59:01;11.20;99.90
23568;DHT22;11962;50.838;4.430;2024-02-21T05:01:28;11.30;99.90
23568;DHT22;11962;50.838;4.430;2024-02-21T05:03:54;11.20;99.90
23568;DHT22;11962;50.838;4.430;2024-02-21T05:06:19;11.30;99.90
23568;DHT22;11962;50.838;4.430;2024-02-21T05:08:45;11.30;99.90
23568;DHT22;11962;50.838;4.430;2024-02-21T05:11:10;11.30;99.90
23568;DHT22;11962;50.838;4.430;2024-02-21T05:13:36;11.30;99.90
23568;DHT22;11962;50.838;4.430;2024-02-21T05:16:02;11.30;99.90
23568;DHT22;11962;50.838;4.430;2024-02-21T05:18:28;11.30;99.90
23568;DHT22;11962;50.838;4.430;2024-02-21T05:20:54;11.30;99.90
23568;DHT22;11962;50.838;4.430;2024-02-21T05:23:19;11.30;99.90
23568;DHT22;11962;50.838;4.430;2024-02-21T05:25:45;11.20;99.90
23568;DHT22;11962;50.838;4.430;2024-02-21T05:28:11;11.20;99.90
23568;DHT22;11962;50.838;4.430;2024-02-21T05:30:36;11.20;99.90
23568;DHT22;11962;50.838;4.430;2024-02-21T05:33:05;11.20;99.90
23568;DHT22;11962;50.838;4.430;2024-02-21T05:35:31;11.20;99.90
23568;DHT22;11962;50.838;4.430;2024-02-21T05:37:57;11.20;99.90
23568;DHT22;11962;50.838;4.430;2024-02-21T05:40:23;11.20;99.90
23568;DHT22;11962;50.838;4.430;2024-02-21T05:42:49;11.20;99.90
23568;DHT22;11962;50.838;4.430;2024-02-21T05:45:16;11.20;99.90
23568;DHT22;11962;50.838;4.430;2024-02-21T05:47:42;11.20;99.90
23568;DHT22;11962;50.838;4.430;2024-02-21T05:50:08;11.10;99.90
23568;DHT22;11962;50.838;4.430;2024-02-21T05:52:34;11.10;99.90
23568;DHT22;11962;50.838;4.430;2024-02-21T05:54:59;11.10;99.90
23568;DHT22;11962;50.838;4.430;2024-02-21T05:57:26;11.10;99.90
23568;DHT22;11962;50.838;4.430;2024-02-21T05:59:52;11.10;99.90
23568;DHT22;11962;50.838;4.430;2024-02-21T06:02:18;11.20;99.90
23568;DHT22;11962;50.838;4.430;2024-02-21T06:04:43;11.20;99.90
23568;DHT22;11962;50.838;4.430;2024-02-21T06:07:09;11.10;99.90
23568;DHT22;11962;50.838;4.430;2024-02-21T06:09:35;11.20;99.90
23568;DHT22;11962;50.838;4.430;2024-02-21T06:12:02;11.20;99.90
23568;DHT22;11962;50.838;4.430;2024-02-21T06:14:28;11.20;99.90
23568;DHT22;11962;50.838;4.430;2024-02-21T06:16:53;11.20;99.90
23568;DHT22;11962;50.838;4.430;2024-02-21T06:19:19;11.20;99.90
23568;DHT22;11962;50.838;4.430;2024-02-21T06:21:45;11.10;99.90
23568;DHT22;11962;50.838;4.430;2024-02-21T06:24:10;11.20;99.90
23568;DHT22;11962;50.838;4.430;2024-02-21T06:26:38;11.20;99.90
23568;DHT22;11962;50.838;4.430;2024-02-21T06:29:05;11.20;99.90
23568;DHT22;11962;50.838;4.430;2024-02-21T06:31:31;11.30;99.90
23568;DHT22;11962;50.838;4.430;2024-02-21T06:33:57;11.20;99.90
23568;DHT22;11962;50.838;4.430;2024-02-21T06:36:23;11.20;99.90
23568;DHT22;11962;50.838;4.430;2024-02-21T06:38:48;11.20;99.90
23568;DHT22;11962;50.838;4.430;2024-02-21T06:41:18;11.20;99.90
23568;DHT22;11962;50.838;4.430;2024-02-21T06:43:47;11.30;99.90
23568;DHT22;11962;50.838;4.430;2024-02-21T06:46:24;11.30;99.90
23568;DHT22;11962;50.838;4.430;2024-02-21T06:48:51;11.20;99.90
23568;DHT22;11962;50.838;4.430;2024-02-21T06:51:16;11.20;99.90
23568;DHT22;11962;50.838;4.430;2024-02-21T06:53:42;11.30;99.90
23568;DHT22;11962;50.838;4.430;2024-02-21T06:56:09;11.20;99.90
23568;DHT22;11962;50.838;4.430;2024-02-21T06:58:36;11.20;99.90
23568;DHT22;11962;50.838;4.430;2024-02-21T07:01:01;11.20;99.90
23568;DHT22;11962;50.838;4.430;2024-02-21T07:03:27;11.10;99.90
23568;DHT22;11962;50.838;4.430;2024-02-21T07:05:53;11.20;99.90
23568;DHT22;11962;50.838;4.430;2024-02-21T07:08:19;11.10;99.90
23568;DHT22;11962;50.838;4.430;2024-02-21T07:10:44;11.10;99.90
23568;DHT22;11962;50.838;4.430;2024-02-21T07:13:10;11.10;99.90
23568;DHT22;11962;50.838;4.430;2024-02-21T07:15:36;11.10;99.90
23568;DHT22;11962;50.838;4.430;2024-02-21T07:18:03;11.10;99.90
23568;DHT22;11962;50.838;4.430;2024-02-21T07:20:29;11.10;99.90
23568;DHT22;11962;50.838;4.430;2024-02-21T07:22:54;11.10;99.90
23568;DHT22;11962;50.838;4.430;2024-02-21T07:25:20;11.20;99.90
23568;DHT22;11962;50.838;4.430;2024-02-21T07:27:46;11.20;99.90
23568;DHT22;11962;50.838;4.430;2024-02-21T07:30:12;11.10;99.90
23568;DHT22;11962;50.838;4.430;2024-02-21T07:32:38;11.10;99.90
23568;DHT22;11962;50.838;4.430;2024-02-21T07:35:04;11.10;99.90
23568;DHT22;11962;50.838;4.430;2024-02-21T07:37:31;11.00;99.90
23568;DHT22;11962;50.838;4.430;2024-02-21T07:39:56;11.00;99.90
23568;DHT22;11962;50.838;4.430;2024-02-21T07:42:22;11.00;99.90
23568;DHT22;11962;50.838;4.430;2024-02-21T07:44:48;11.10;99.90
23568;DHT22;11962;50.838;4.430;2024-02-21T07:47:13;11.00;99.90
23568;DHT22;11962;50.838;4.430;2024-02-21T07:49:45;11.10;99.90
23568;DHT22;11962;50.838;4.430;2024-02-21T07:52:11;11.10;99.90
23568;DHT22;11962;50.838;4.430;2024-02-21T07:54:37;11.20;99.90
23568;DHT22;11962;50.838;4.430;2024-02-21T07:57:03;11.20;99.90
23568;DHT22;11962;50.838;4.430;2024-02-21T07:59:29;11.20;99.90
23568;DHT22;11962;50.838;4.430;2024-02-21T08:01:56;11.30;99.90
23568;DHT22;11962;50.838;4.430;2024-02-21T08:04:23;11.30;99.90
23568;DHT22;11962;50.838;4.430;2024-02-21T08:06:53;11.30;99.90
23568;DHT22;11962;50.838;4.430;2024-02-21T08:09:19;11.30;99.90
23568;DHT22;11962;50.838;4.430;2024-02-21T08:11:45;11.30;99.90
23568;DHT22;11962;50.838;4.430;2024-02-21T08:14:10;11.40;99.90
23568;DHT22;11962;50.838;4.430;2024-02-21T08:16:36;11.40;99.90
23568;DHT22;11962;50.838;4.430;2024-02-21T08:19:02;11.40;99.90
23568;DHT22;11962;50.838;4.430;2024-02-21T08:21:28;11.50;99.90
23568;DHT22;11962;50.838;4.430;2024-02-21T08:23:54;11.50;99.90
23568;DHT22;11962;50.838;4.430;2024-02-21T08:26:20;11.50;99.90
23568;DHT22;11962;50.838;4.430;2024-02-21T08:28:45;11.50;99.90
23568;DHT22;11962;50.838;4.430;2024-02-21T08:31:18;11.50;99.90
23568;DHT22;11962;50.838;4.430;2024-02-21T08:33:44;11.50;99.90
23568;DHT22;11962;50.838;4.430;2024-02-21T08:36:17;11.50;99.90
23568;DHT22;11962;50.838;4.430;2024-02-21T08:38:43;11.60;99.90
23568;DHT22;11962;50.838;4.430;2024-02-21T08:41:09;11.60;99.90
23568;DHT22;11962;50.838;4.430;2024-02-21T08:43:35;11.60;99.90
23568;DHT22;11962;50.838;4.430;2024-02-21T08:46:01;11.70;99.90
23568;DHT22;11962;50.838;4.430;2024-02-21T08:48:27;11.70;99.90
23568;DHT22;11962;50.838;4.430;2024-02-21T08:50:52;11.80;99.90
23568;DHT22;11962;50.838;4.430;2024-02-21T08:53:20;11.80;99.90
23568;DHT22;11962;50.838;4.430;2024-02-21T08:55:47;11.80;99.90
23568;DHT22;11962;50.838;4.430;2024-02-21T08:58:12;11.80;99.90
23568;DHT22;11962;50.838;4.430;2024-02-21T09:00:42;11.90;99.90
23568;DHT22;11962;50.838;4.430;2024-02-21T09:03:07;12.00;99.90
23568;DHT22;11962;50.838;4.430;2024-02-21T09:05:34;12.00;99.90
23568;DHT22;11962;50.838;4.430;2024-02-21T09:08:00;12.10;99.90
23568;DHT22;11962;50.838;4.430;2024-02-21T09:10:32;12.10;99.90
23568;DHT22;11962;50.838;4.430;2024-02-21T09:13:00;12.10;99.90
23568;DHT22;11962;50.838;4.430;2024-02-21T09:15:25;12.20;99.90
23568;DHT22;11962;50.838;4.430;2024-02-21T09:17:52;12.30;99.90
23568;DHT22;11962;50.838;4.430;2024-02-21T09:20:19;12.20;99.90
23568;DHT22;11962;50.838;4.430;2024-02-21T09:22:45;12.20;99.90
23568;DHT22;11962;50.838;4.430;2024-02-21T09:25:11;12.20;99.90
23568;DHT22;11962;50.838;4.430;2024-02-21T09:27:38;12.20;99.90
23568;DHT22;11962;50.838;4.430;2024-02-21T09:30:08;12.30;99.90
23568;DHT22;11962;50.838;4.430;2024-02-21T09:32:34;12.30;99.90
23568;DHT22;11962;50.838;4.430;2024-02-21T09:35:00;12.40;99.90
23568;DHT22;11962;50.838;4.430;2024-02-21T09:37:27;12.40;99.90
23568;DHT22;11962;50.838;4.430;2024-02-21T09:39:55;12.40;99.90
23568;DHT22;11962;50.838;4.430;2024-02-21T09:42:42;12.50;99.90
23568;DHT22;11962;50.838;4.430;2024-02-21T09:45:21;12.50;99.90
23568;DHT22;11962;50.838;4.430;2024-02-21T09:50:34;12.70;99.90
23568;DHT22;11962;50.838;4.430;2024-02-21T09:53:02;12.70;99.90
23568;DHT22;11962;50.838;4.430;2024-02-21T09:55:29;12.80;99.90
23568;DHT22;11962;50.838;4.430;2024-02-21T09:57:58;12.80;99.90
23568;DHT22;11962;50.838;4.430;2024-02-21T10:00:24;13.00;99.90
23568;DHT22;11962;50.838;4.430;2024-02-21T10:02:50;13.20;99.90
23568;DHT22;11962;50.838;4.430;2024-02-21T10:05:16;13.20;99.90
23568;DHT22;11962;50.838;4.430;2024-02-21T10:07:43;13.30;99.90
23568;DHT22;11962;50.838;4.430;2024-02-21T10:10:09;13.40;99.90
23568;DHT22;11962;50.838;4.430;2024-02-21T10:12:35;13.50;99.90
23568;DHT22;11962;50.838;4.430;2024-02-21T10:15:08;13.50;99.90
23568;DHT22;11962;50.838;4.430;2024-02-21T10:17:34;13.60;99.90
23568;DHT22;11962;50.838;4.430;2024-02-21T10:20:10;13.60;99.90
23568;DHT22;11962;50.838;4.430;2024-02-21T10:22:38;13.60;99.90
23568;DHT22;11962;50.838;4.430;2024-02-21T10:25:12;13.70;99.90
23568;DHT22;11962;50.838;4.430;2024-02-21T10:27:39;13.80;99.90
23568;DHT22;11962;50.838;4.430;2024-02-21T10:30:12;13.90;99.90
23568;DHT22;11962;50.838;4.430;2024-02-21T10:32:57;13.80;99.90
23568;DHT22;11962;50.838;4.430;2024-02-21T10:35:41;13.80;99.90
23568;DHT22;11962;50.838;4.430;2024-02-21T10:38:09;13.70;99.90
23568;DHT22;11962;50.838;4.430;2024-02-21T10:40:35;13.70;99.90
23568;DHT22;11962;50.838;4.430;2024-02-21T10:43:02;13.80;99.90
23568;DHT22;11962;50.838;4.430;2024-02-21T10:47:56;13.80;99.90
23568;DHT22;11962;50.838;4.430;2024-02-21T10:50:25;13.80;99.90
23568;DHT22;11962;50.838;4.430;2024-02-21T10:53:03;13.80;99.90
23568;DHT22;11962;50.838;4.430;2024-02-21T10:55:40;13.80;99.90
23568;DHT22;11962;50.838;4.430;2024-02-21T10:58:09;13.90;99.90
23568;DHT22;11962;50.838;4.430;2024-02-21T11:00:35;14.00;99.90
23568;DHT22;11962;50.838;4.430;2024-02-21T11:03:02;14.10;99.90
23568;DHT22;11962;50.838;4.430;2024-02-21T11:05:29;14.20;99.90
23568;DHT22;11962;50.838;4.430;2024-02-21T11:07:55;14.30;99.90
23568;DHT22;11962;50.838;4.430;2024-02-21T11:10:25;14.40;99.90
23568;DHT22;11962;50.838;4.430;2024-02-21T11:13:08;14.60;99.90
23568;DHT22;11962;50.838;4.430;2024-02-21T11:15:34;14.70;99.90
23568;DHT22;11962;50.838;4.430;2024-02-21T11:18:01;14.60;99.90
23568;DHT22;11962;50.838;4.430;2024-02-21T11:20:37;14.60;99.90
23568;DHT22;11962;50.838;4.430;2024-02-21T11:23:03;14.50;99.90
23568;DHT22;11962;50.838;4.430;2024-02-21T11:25:30;14.40;99.90
23568;DHT22;11962;50.838;4.430;2024-02-21T11:28:06;14.40;99.90
23568;DHT22;11962;50.838;4.430;2024-02-21T11:37:32;14.30;99.90
23568;DHT22;11962;50.838;4.430;2024-02-21T11:40:15;14.20;99.90
23568;DHT22;11962;50.838;4.430;2024-02-21T11:42:40;14.10;99.90
23568;DHT22;11962;50.838;4.430;2024-02-21T11:45:07;14.10;99.90
23568;DHT22;11962;50.838;4.430;2024-02-21T11:47:34;14.20;99.90
23568;DHT22;11962;50.838;4.430;2024-02-21T11:50:00;14.20;99.90
23568;DHT22;11962;50.838;4.430;2024-02-21T11:52:30;14.20;99.90
23568;DHT22;11962;50.838;4.430;2024-02-21T11:54:56;14.10;99.90
23568;DHT22;11962;50.838;4.430;2024-02-21T11:57:29;14.20;99.90
23568;DHT22;11962;50.838;4.430;2024-02-21T11:59:55;14.20;99.90
23568;DHT22;11962;50.838;4.430;2024-02-21T12:02:21;14.10;99.90
23568;DHT22;11962;50.838;4.430;2024-02-21T12:04:47;14.10;99.90
23568;DHT22;11962;50.838;4.430;2024-02-21T12:07:14;13.90;99.90
23568;DHT22;11962;50.838;4.430;2024-02-21T12:09:41;13.80;99.90
23568;DHT22;11962;50.838;4.430;2024-02-21T12:12:07;13.80;99.90
23568;DHT22;11962;50.838;4.430;2024-02-21T12:14:34;13.80;99.90
23568;DHT22;11962;50.838;4.430;2024-02-21T12:17:01;13.70;99.90
23568;DHT22;11962;50.838;4.430;2024-02-21T12:19:30;13.60;99.90
23568;DHT22;11962;50.838;4.430;2024-02-21T12:21:58;13.40;99.90
23568;DHT22;11962;50.838;4.430;2024-02-21T12:24:25;13.30;99.90
23568;DHT22;11962;50.838;4.430;2024-02-21T12:26:52;13.40;99.90
23568;DHT22;11962;50.838;4.430;2024-02-21T12:29:21;13.40;99.90
23568;DHT22;11962;50.838;4.430;2024-02-21T12:32:08;13.30;99.90
23568;DHT22;11962;50.838;4.430;2024-02-21T12:34:34;13.30;99.90
23568;DHT22;11962;50.838;4.430;2024-02-21T12:37:02;13.30;99.90
23568;DHT22;11962;50.838;4.430;2024-02-21T12:39:29;13.40;99.90
23568;DHT22;11962;50.838;4.430;2024-02-21T12:41:55;13.50;99.90
23568;DHT22;11962;50.838;4.430;2024-02-21T12:44:29;13.50;99.90
23568;DHT22;11962;50.838;4.430;2024-02-21T12:46:55;13.60;99.90
23568;DHT22;11962;50.838;4.430;2024-02-21T12:49:21;13.70;99.90
23568;DHT22;11962;50.838;4.430;2024-02-21T12:51:46;13.80;99.90
23568;DHT22;11962;50.838;4.430;2024-02-21T12:54:12;13.70;99.90
23568;DHT22;11962;50.838;4.430;2024-02-21T12:56:40;13.80;99.90
23568;DHT22;11962;50.838;4.430;2024-02-21T12:59:06;13.80;99.90
23568;DHT22;11962;50.838;4.430;2024-02-21T13:01:35;13.90;99.90
23568;DHT22;11962;50.838;4.430;2024-02-21T13:04:01;13.90;99.90
23568;DHT22;11962;50.838;4.430;2024-02-21T13:06:47;13.80;99.90
23568;DHT22;11962;50.838;4.430;2024-02-21T13:09:13;13.80;99.90
23568;DHT22;11962;50.838;4.430;2024-02-21T13:11:39;13.80;99.90
23568;DHT22;11962;50.838;4.430;2024-02-21T13:14:07;13.80;99.90
23568;DHT22;11962;50.838;4.430;2024-02-21T13:16:33;13.90;99.90
23568;DHT22;11962;50.838;4.430;2024-02-21T13:19:05;13.90;99.90
23568;DHT22;11962;50.838;4.430;2024-02-21T13:21:54;13.90;99.90
23568;DHT22;11962;50.838;4.430;2024-02-21T13:24:42;13.90;99.90
23568;DHT22;11962;50.838;4.430;2024-02-21T13:27:08;13.90;99.90
23568;DHT22;11962;50.838;4.430;2024-02-21T13:29:44;14.00;99.90
23568;DHT22;11962;50.838;4.430;2024-02-21T13:32:10;14.00;99.90
23568;DHT22;11962;50.838;4.430;2024-02-21T13:34:37;13.90;99.90
23568;DHT22;11962;50.838;4.430;2024-02-21T13:37:47;13.90;99.90
23568;DHT22;11962;50.838;4.430;2024-02-21T13:40:14;13.80;99.90
23568;DHT22;11962;50.838;4.430;2024-02-21T13:42:40;13.70;99.90
23568;DHT22;11962;50.838;4.430;2024-02-21T13:45:45;13.70;99.90
23568;DHT22;11962;50.838;4.430;2024-02-21T13:49:03;13.60;99.90
23568;DHT22;11962;50.838;4.430;2024-02-21T13:51:38;13.40;99.90
23568;DHT22;11962;50.838;4.430;2024-02-21T13:54:47;13.40;99.90
23568;DHT22;11962;50.838;4.430;2024-02-21T13:57:20;13.30;99.90
23568;DHT22;11962;50.838;4.430;2024-02-21T13:59:46;13.20;99.90
23568;DHT22;11962;50.838;4.430;2024-02-21T14:02:14;13.20;99.90
23568;DHT22;11962;50.838;4.430;2024-02-21T14:05:00;13.10;99.90
23568;DHT22;11962;50.838;4.430;2024-02-21T14:07:26;13.10;99.90
23568;DHT22;11962;50.838;4.430;2024-02-21T14:09:51;13.10;99.90
23568;DHT22;11962;50.838;4.430;2024-02-21T14:12:22;13.00;99.90
23568;DHT22;11962;50.838;4.430;2024-02-21T14:14:48;13.10;99.90
23568;DHT22;11962;50.838;4.430;2024-02-21T14:17:15;13.00;99.90
23568;DHT22;11962;50.838;4.430;2024-02-21T14:19:41;12.90;99.90
23568;DHT22;11962;50.838;4.430;2024-02-21T14:22:13;12.80;99.90
23568;DHT22;11962;50.838;4.430;2024-02-21T14:24:41;12.80;99.90
23568;DHT22;11962;50.838;4.430;2024-02-21T14:27:07;12.80;99.90
23568;DHT22;11962;50.838;4.430;2024-02-21T14:29:34;12.90;99.90
23568;DHT22;11962;50.838;4.430;2024-02-21T14:32:24;12.90;99.90
23568;DHT22;11962;50.838;4.430;2024-02-21T14:34:52;12.80;99.90
23568;DHT22;11962;50.838;4.430;2024-02-21T14:37:18;12.70;99.90
23568;DHT22;11962;50.838;4.430;2024-02-21T14:39:53;12.70;99.90
23568;DHT22;11962;50.838;4.430;2024-02-21T14:42:19;12.60;99.90
23568;DHT22;11962;50.838;4.430;2024-02-21T14:54:59;12.40;99.90
23568;DHT22;11962;50.838;4.430;2024-02-21T14:57:28;12.40;99.90
23568;DHT22;11962;50.838;4.430;2024-02-21T14:59:53;12.30;99.90
23568;DHT22;11962;50.838;4.430;2024-02-21T15:02:25;12.30;99.90
23568;DHT22;11962;50.838;4.430;2024-02-21T15:04:50;12.20;99.90
23568;DHT22;11962;50.838;4.430;2024-02-21T15:07:17;12.20;99.90
23568;DHT22;11962;50.838;4.430;2024-02-21T15:19:51;12.10;99.90
23568;DHT22;11962;50.838;4.430;2024-02-21T15:22:20;12.10;99.90
23568;DHT22;11962;50.838;4.430;2024-02-21T15:24:51;12.10;99.90
23568;DHT22;11962;50.838;4.430;2024-02-21T15:27:19;12.00;99.90
23568;DHT22;11962;50.838;4.430;2024-02-21T15:29:45;11.90;99.90
23568;DHT22;11962;50.838;4.430;2024-02-21T15:32:11;11.90;99.90
23568;DHT22;11962;50.838;4.430;2024-02-21T15:34:36;11.80;99.90
23568;DHT22;11962;50.838;4.430;2024-02-21T15:37:02;11.70;99.90
23568;DHT22;11962;50.838;4.430;2024-02-21T15:39:29;11.80;99.90
23568;DHT22;11962;50.838;4.430;2024-02-21T15:41:58;11.80;99.90
23568;DHT22;11962;50.838;4.430;2024-02-21T15:44:25;11.70;99.90
23568;DHT22;11962;50.838;4.430;2024-02-21T15:46:51;11.60;99.90
23568;DHT22;11962;50.838;4.430;2024-02-21T15:49:18;11.60;99.90
23568;DHT22;11962;50.838;4.430;2024-02-21T15:51:44;11.50;99.90
23568;DHT22;11962;50.838;4.430;2024-02-21T15:54:10;11.40;99.90
23568;DHT22;11962;50.838;4.430;2024-02-21T15:56:36;11.40;99.90
23568;DHT22;11962;50.838;4.430;2024-02-21T15:59:01;11.30;99.90
23568;DHT22;11962;50.838;4.430;2024-02-21T16:01:29;11.30;99.90
23568;DHT22;11962;50.838;4.430;2024-02-21T16:04:05;11.20;99.90
23568;DHT22;11962;50.838;4.430;2024-02-21T16:06:51;11.30;99.90